Flight Track Log - Related Links

Times and Time Zones

All times are in EDT time to prevent confusion due to time zone crossing. See the FLG4262 flight status page for this flight to view local times or setup timezone preferences in your user account.


Time Position Orientation Groundspeed Altitude Reporting Facility
EDT Latitude Longitude Course Direction KTS MPH feet Rate Location/Type
Thu 03:56:46 PM 42.2294 -83.3367 56° Northeast 142 163 1,500  Level Cleveland Center
Thu 03:57:41 PM 42.2653 -83.3050 33° Northeast 194 223 3,400 1,705 Climbing Cleveland Center
Thu 03:58:14 PM 42.2850 -83.2897 30° Northeast 186 214 4,000 1,279 Climbing Cleveland Center
Thu 03:58:42 PM 42.3061 -83.2400 60° Northeast 256 295 4,700 1,839 Climbing Cleveland Center
Thu 03:59:16 PM 42.3097 -83.2058 82° East 229 264 5,900 2,754 Climbing Cleveland Center
Thu 03:59:43 PM 42.3153 -83.1453 83° East 261 300 7,500 3,290 Climbing Cleveland Center
Thu 04:00:18 PM 42.3214 -83.0864 82° East 263 303 9,300 1,546 Climbing Cleveland Center
Thu 04:01:20 PM 42.3072 -82.9772 100° East 300 345 10,000 960 Climbing Cleveland Center
Thu 04:02:00 PM 42.3594 -82.4645 56° Northeast  Level FlightAware Approximate
Thu 04:02:23 PM 42.3042 -82.8472 92° East 332 382 11,300  Level Cleveland Center
Thu 04:03:25 PM 42.3228 -82.7281 78° East 342 394 13,100 1,597 Climbing Cleveland Center
Thu 04:04:27 PM 42.3433 -82.6011 78° East 346 398 14,600 1,500 Climbing Cleveland Center
Thu 04:05:29 PM 42.3650 -82.4694 77° East 356 410 16,200 1,403 Climbing Cleveland Center
Thu 04:06:31 PM 42.3633 -82.3006 91° East 371 427 17,500 1,210 Climbing Cleveland Center
Thu 04:07:33 PM 42.3558 -82.1528 94° East 391 450 18,700 1,161 Climbing Cleveland Center
Thu 04:08:35 PM 42.3497 -81.9892 93° East 396 456 19,900 1,113 Climbing Cleveland Center
Thu 04:09:37 PM 42.3411 -81.8333 94° East 407 468 21,000 968 Climbing Cleveland Center
Thu 04:10:39 PM 42.3344 -81.6725 93° East 421 484 21,900 816 Climbing Cleveland Center
Thu 04:11:42 PM 42.3269 -81.5108 94° East 425 489 22,700 720 Climbing Cleveland Center
Thu 04:12:44 PM 42.3194 -81.3456 93° East 430 495 23,400 677 Climbing Cleveland Center
Thu 04:13:46 PM 42.3111 -81.1778 94° East 440 506 24,100 629 Climbing Cleveland Center
Thu 04:14:48 PM 42.3011 -81.0083 95° East 444 511 24,700 581 Climbing Cleveland Center
Thu 04:15:50 PM 42.2931 -80.8336 94° East 455 524 25,300 581 Climbing Cleveland Center
Thu 04:16:52 PM 42.2817 -80.6314 94° East 457 526 25,900 532 Climbing Cleveland Center
Thu 04:17:54 PM 42.2717 -80.4525 94° East 468 539 26,400 484 Climbing Cleveland Center
Thu 04:18:56 PM 42.2608 -80.2739 95° East 473 544 26,900 484 Climbing Cleveland Center
Thu 04:19:58 PM 42.2506 -80.0947 94° East 474 545 27,400 480 Climbing Cleveland Center
Thu 04:21:01 PM 42.2408 -79.9139 94° East 474 545 27,900 480 Climbing Cleveland Center
Thu 04:22:03 PM 42.2514 -79.7339 85° East 480 552 28,400 484 Climbing Cleveland Center
Thu 04:23:05 PM 42.2622 -79.5558 85° East 480 552 28,900 290 Climbing Cleveland Center
Thu 04:24:07 PM 42.2686 -79.3372 88° East 486 559 29,000 48 Climbing Cleveland Center
Thu 04:25:09 PM 42.2669 -79.1492 91° East 501 577 29,000 -387 Level Cleveland Center
Thu 04:26:11 PM 42.2653 -78.9567 91° East 515 593 28,200 -484 Descending Cleveland Center
Thu 04:27:13 PM 42.2639 -78.7733 91° East 524 603 28,000 -919 Descending Cleveland Center
Thu 04:28:15 PM 42.2336 -78.5436 100° East 523 602 26,300 -960 Descending Cleveland Center
Thu 04:29:18 PM 42.2094 -78.3586 100° East 514 592 26,000 -192 Descending Cleveland Center
Thu 04:30:20 PM 42.1897 -78.1806 98° East 494 568 25,900 -774 Descending Cleveland Center
Thu 04:31:22 PM 42.1800 -78.0039 94° East 484 557 24,400 -1,452 Descending Cleveland Center
Thu 04:32:24 PM 42.1844 -77.8317 88° East 469 540 22,900 -1,597 Descending Cleveland Center
Thu 04:33:26 PM 42.1881 -77.6394 88° East 439 505 21,100 -1,597 Descending Cleveland Center
Thu 04:34:28 PM 42.1906 -77.4781 89° East 436 502 19,600 -1,452 Descending Cleveland Center
Thu 04:35:30 PM 42.1928 -77.3172 89° East 435 501 18,100 -1,258 Descending Cleveland Center
Thu 04:36:32 PM 42.1958 -77.1581 88° East 432 497 17,000 -1,016 Descending Cleveland Center
Thu 04:37:34 PM 42.1986 -76.9792 89° East 403 464 16,000 -1,200 Descending Cleveland Center
Thu 04:38:37 PM 42.1992 -76.8417 90° East 373 429 14,500 -1,440 Descending Cleveland Center
Thu 04:39:39 PM 42.2017 -76.7094 88° East 360 414 13,000 -1,452 Descending Cleveland Center
Thu 04:40:41 PM 42.2022 -76.5889 90° East 328 377 11,500 -1,645 Descending Cleveland Center
Thu 04:41:43 PM 42.1786 -76.4781 106° East 312 359 9,600 -1,935 Descending Cleveland Center
Thu 04:42:45 PM 42.1611 -76.3689 102° East 286 329 7,500 -1,984 Descending Cleveland Center
Thu 04:43:47 PM 42.1436 -76.2714 104° East 274 315 5,500 -1,210 Descending Cleveland Center
Thu 04:44:49 PM 42.1275 -76.1681 102° East 237 273 5,000 -291 Descending Cleveland Center
Thu 04:45:30 PM 42.1194 -76.1192 103° East 233 268 5,000  Level New York Center
Thu 04:46:30 PM 42.0869 -76.0522 123° Southeast 211 243 5,000  Level New York Center
Thu 04:47:30 PM 42.0650 -75.9864 114° Southeast 200 230 5,000  Level New York Center
Thu 04:48:30 PM 42.0800 -75.9289 71° East 166 191 5,000 -150 Level New York Center
Thu 04:49:30 PM 42.1256 -75.9297 359° North 107 123 4,700 -1,100 Descending New York Center
Thu 04:50:30 PM 42.1558 -75.9517 332° Northwest 111 128 2,800 -1,300 Descending New York Center
Thu 04:51:30 PM 42.1869 -75.9567 353° North 111 128 2,100 -700 Descending New York Center

Login

Don't have an account? Register now (free) for customized features, flight alerts, and more!